Аэропорт: Кемерово. Кемерово

ICAO: UNEE

METAR:
2021-01-24 17:30:00
UNEE 241730Z 27004MPS CAVOK M33/M36 Q1037 R23/850545 NOSIG RMK QFE755
METAR:
2021-01-24 14:00:00
TAF UNEE 241400Z 2415/2515 28003G08MPS 6000 -SHSN BKN016CB TEMPO 2415/2420 1200 BR FU SCT004 SCT010CB TEMPO 2420/2506 0300 FG FU VV001 BECMG 2500/2503 16003G08MPS